Paddy Guidry — WTG3900 — position and weather

sailwx.info

Track history (hours):
 
Tides and Currents Weather Stations Pressure Air Temp Water Temp Dewpoint Dewpoint Depression Visibility Wind Speed Wind Dir Waves Ship Positions

Paddy Guidry

Owner: CAPTAIN TIMMY INC, GALLIANO, LA. More information available from US FCC via Universal Licensing System and Coast Guard Vessel Documentation Center.

Last reported at 2017-Feb-16 20:33 UTC. Time now 2017-Feb-21 03:00 UTC.
Position N 29°34' W 090°34'.

; draft 1.5 m.

Type: Tug. MMSI: 366998310.

Date/timePositionNaut miles runAvg speedWind from/ knotsBaromVisibWave heightAir tempDewpointWater temp
2017-Feb-16 20:33N 29°34' W 090°34'5 4.4
2017-Feb-16 19:26N 29°36' W 090°40'0 0.0
2017-Feb-16 18:34N 29°36' W 090°40'0 0.0
2017-Feb-16 17:33N 29°36' W 090°40'0 0.1
2017-Feb-16 16:34N 29°36' W 090°40'0 0.0
2017-Feb-16 15:33N 29°36' W 090°40'0 0.0
2017-Feb-16 14:33N 29°36' W 090°40'0 0.0
2017-Feb-16 13:33N 29°36' W 090°40'0 0.0
2017-Feb-16 12:33N 29°36' W 090°40'0 0.0
2017-Feb-16 11:33N 29°36' W 090°40'0 0.0
2017-Feb-16 10:34N 29°36' W 090°40'0 0.0
2017-Feb-16 09:33N 29°36' W 090°40'0 0.0
2017-Feb-16 08:33N 29°36' W 090°40'3 2.8
2017-Feb-16 07:33N 29°35' W 090°43'5 4.8
2017-Feb-16 06:33N 29°30' W 090°43'5 5.1
2017-Feb-16 05:33N 29°25' W 090°43'6 0.4
2017-Feb-15 14:08N 29°25' W 090°50'3 1.8
2017-Feb-15 12:28N 29°25' W 090°47'1 0.2
2017-Feb-15 06:26N 29°24' W 090°46'0 0.0
2017-Feb-15 04:30N 29°24' W 090°46'0 0.0
2017-Feb-15 03:29N 29°24' W 090°46'0 0.1
2017-Feb-15 02:30N 29°24' W 090°46'3 1.6
2017-Feb-15 00:33N 29°27' W 090°43'3 3.3
2017-Feb-14 23:33N 29°30' W 090°43'3 3.3
2017-Feb-14 22:33N 29°33' W 090°42'2 1.9
2017-Feb-14 21:33N 29°35' W 090°43'2 2.1
2017-Feb-14 20:34N 29°37' W 090°42'2 2.4
2017-Feb-14 19:33N 29°36' W 090°40'0 0.0
2017-Feb-14 18:33N 29°36' W 090°40'0 0.2
2017-Feb-14 17:33N 29°36' W 090°40'0 0.0
2017-Feb-14 16:33N 29°36' W 090°40'0 0.0
2017-Feb-14 15:33N 29°36' W 090°40'0 0.0
2017-Feb-14 14:33N 29°36' W 090°40'0 0.1
2017-Feb-14 13:33N 29°36' W 090°40'0 0.2
2017-Feb-14 12:33N 29°36' W 090°40'0 0.0
2017-Feb-14 11:33N 29°36' W 090°40'0 0.0
2017-Feb-14 10:33N 29°36' W 090°40'0 0.0
2017-Feb-14 09:32N 29°36' W 090°40'0 0.0
2017-Feb-14 08:33N 29°36' W 090°40'0 0.0
2017-Feb-14 07:33N 29°36' W 090°40'0 0.0
2017-Feb-14 06:33N 29°36' W 090°40'0 0.0
2017-Feb-14 05:23N 29°36' W 090°40'0 0.0
2017-Feb-14 04:32N 29°36' W 090°40'0 0.0
2017-Feb-14 03:33N 29°36' W 090°40'0 0.0
2017-Feb-14 02:33N 29°36' W 090°40'0 0.0
2017-Feb-14 01:33N 29°36' W 090°40'0 0.1
2017-Feb-14 00:33N 29°36' W 090°40'2 1.7
2017-Feb-13 23:33N 29°37' W 090°42'1 1.5
2017-Feb-13 22:33N 29°36' W 090°40'0 0.0
2017-Feb-13 21:33N 29°36' W 090°40'0 0.1
2017-Feb-13 20:33N 29°36' W 090°40'0 0.0
2017-Feb-13 19:33N 29°36' W 090°40'1 1.1
2017-Feb-13 18:33N 29°36' W 090°39'5 4.8
2017-Feb-13 17:33N 29°34' W 090°34'  
Track history (hours):
 
Tides and Currents Weather Stations Pressure Air Temp Water Temp Dewpoint Dewpoint Depression Visibility Wind Speed Wind Dir Waves Ship Positions

Paddy Guidry

Owner: CAPTAIN TIMMY INC, GALLIANO, LA. More information available from US FCC via Universal Licensing System and Coast Guard Vessel Documentation Center.

Last reported at 2017-Feb-16 20:33 UTC. Time now 2017-Feb-21 03:00 UTC.
Position N 29°34' W 090°34'.

; draft 1.5 m.

Type: Tug. MMSI: 366998310.

Date/timePositionNaut miles runAvg speedWind from/ knotsBaromVisibWave heightAir tempDewpointWater temp
2017-Feb-16 20:33N 29°34' W 090°34'5 4.4
2017-Feb-16 19:26N 29°36' W 090°40'0 0.0
2017-Feb-16 18:34N 29°36' W 090°40'0 0.0
2017-Feb-16 17:33N 29°36' W 090°40'0 0.1
2017-Feb-16 16:34N 29°36' W 090°40'0 0.0
2017-Feb-16 15:33N 29°36' W 090°40'0 0.0
2017-Feb-16 14:33N 29°36' W 090°40'0 0.0
2017-Feb-16 13:33N 29°36' W 090°40'0 0.0
2017-Feb-16 12:33N 29°36' W 090°40'0 0.0
2017-Feb-16 11:33N 29°36' W 090°40'0 0.0
2017-Feb-16 10:34N 29°36' W 090°40'0 0.0
2017-Feb-16 09:33N 29°36' W 090°40'0 0.0
2017-Feb-16 08:33N 29°36' W 090°40'3 2.8
2017-Feb-16 07:33N 29°35' W 090°43'5 4.8
2017-Feb-16 06:33N 29°30' W 090°43'5 5.1
2017-Feb-16 05:33N 29°25' W 090°43'6 0.4
2017-Feb-15 14:08N 29°25' W 090°50'3 1.8
2017-Feb-15 12:28N 29°25' W 090°47'1 0.2
2017-Feb-15 06:26N 29°24' W 090°46'0 0.0
2017-Feb-15 04:30N 29°24' W 090°46'0 0.0
2017-Feb-15 03:29N 29°24' W 090°46'0 0.1
2017-Feb-15 02:30N 29°24' W 090°46'3 1.6
2017-Feb-15 00:33N 29°27' W 090°43'3 3.3
2017-Feb-14 23:33N 29°30' W 090°43'3 3.3
2017-Feb-14 22:33N 29°33' W 090°42'2 1.9
2017-Feb-14 21:33N 29°35' W 090°43'2 2.1
2017-Feb-14 20:34N 29°37' W 090°42'2 2.4
2017-Feb-14 19:33N 29°36' W 090°40'0 0.0
2017-Feb-14 18:33N 29°36' W 090°40'0 0.2
2017-Feb-14 17:33N 29°36' W 090°40'0 0.0
2017-Feb-14 16:33N 29°36' W 090°40'0 0.0
2017-Feb-14 15:33N 29°36' W 090°40'0 0.0
2017-Feb-14 14:33N 29°36' W 090°40'0 0.1
2017-Feb-14 13:33N 29°36' W 090°40'0 0.2
2017-Feb-14 12:33N 29°36' W 090°40'0 0.0
2017-Feb-14 11:33N 29°36' W 090°40'0 0.0
2017-Feb-14 10:33N 29°36' W 090°40'0 0.0
2017-Feb-14 09:32N 29°36' W 090°40'0 0.0
2017-Feb-14 08:33N 29°36' W 090°40'0 0.0
2017-Feb-14 07:33N 29°36' W 090°40'0 0.0
2017-Feb-14 06:33N 29°36' W 090°40'0 0.0
2017-Feb-14 05:23N 29°36' W 090°40'0 0.0
2017-Feb-14 04:32N 29°36' W 090°40'0 0.0
2017-Feb-14 03:33N 29°36' W 090°40'0 0.0
2017-Feb-14 02:33N 29°36' W 090°40'0 0.0
2017-Feb-14 01:33N 29°36' W 090°40'0 0.1
2017-Feb-14 00:33N 29°36' W 090°40'2 1.7
2017-Feb-13 23:33N 29°37' W 090°42'1 1.5
2017-Feb-13 22:33N 29°36' W 090°40'0 0.0
2017-Feb-13 21:33N 29°36' W 090°40'0 0.1
2017-Feb-13 20:33N 29°36' W 090°40'0 0.0
2017-Feb-13 19:33N 29°36' W 090°40'1 1.1
2017-Feb-13 18:33N 29°36' W 090°39'5 4.8
2017-Feb-13 17:33N 29°34' W 090°34'  

Dump ship's entire track history